Time;durP1;ratioP1;P1;durP2;ratioP2;P2;SDS_P1;SDS_P2;PMS_P1;PMS_P2;Temp;Humidity;BMP_temperature;BMP_pressure;BME280_temperature;BME280_humidity;BME280_pressure;Samples;Min_cycle;Max_cycle;Signal;HPM_P1;HPM_P2
2022/05/02 00:00:38;;;;;;;16.83;2.28;;;;;;;21.09;54.53;99805.78;7310689;19;130214;-39
2022/05/02 00:03:04;;;;;;;33.42;4.30;;;;;;;21.12;55.04;99805.50;7307844;19;130231;-39
2022/05/02 00:05:29;;;;;;;23.48;3.08;;;;;;;21.02;55.75;99788.16;7311092;19;129493;-39
2022/05/02 00:07:54;;;;;;;44.53;5.57;;;;;;;21.07;54.82;99797.28;7309345;19;129103;-39
2022/05/02 00:10:20;;;;;;;15.82;2.20;;;;;;;21.11;54.85;99803.88;7307872;19;158322;-40
2022/05/02 00:12:45;;;;;;;19.55;2.63;;;;;;;21.13;54.82;99801.97;7308007;19;157621;-39
2022/05/02 00:15:11;;;;;;;32.40;4.18;;;;;;;21.03;55.16;99781.94;7310560;19;130248;-38
2022/05/02 00:20:21;;;;;;;23.40;2.88;;;;;;;21.13;54.82;99801.97;7311347;19;129293;-38
2022/05/02 00:22:46;;;;;;;19.63;2.40;;;;;;;21.11;54.86;99797.81;7310117;19;129921;-37
2022/05/02 00:25:12;;;;;;;26.23;3.28;;;;;;;21.04;55.56;99781.81;7306727;19;154493;-38
2022/05/02 00:27:39;;;;;;;23.83;3.03;;;;;;;21.08;55.04;99804.13;7311331;19;129221;-38
2022/05/02 00:30:06;;;;;;;21.30;3.05;;;;;;;21.11;54.80;99803.03;7311329;19;130675;-39
2022/05/02 00:32:31;;;;;;;19.45;2.53;;;;;;;21.09;54.86;99800.56;7307123;19;130375;-37
2022/05/02 00:34:56;;;;;;;19.73;2.47;;;;;;;21.12;55.11;99795.06;7308700;19;155421;-38
2022/05/02 00:37:22;;;;;;;27.58;3.42;;;;;;;21.13;55.53;99790.66;7309866;19;136848;-38
2022/05/02 00:39:47;;;;;;;18.75;2.45;;;;;;;21.10;55.29;99791.78;7309369;19;141274;-41
2022/05/02 00:42:12;;;;;;;7.00;1.23;;;;;;;21.13;54.97;99785.44;7308911;19;145505;-38
2022/05/02 00:44:42;;;;;;;25.93;3.23;;;;;;;21.11;55.76;99785.56;7305870;19;154372;-39
2022/05/02 00:47:09;;;;;;;18.92;2.10;;;;;;;21.09;54.89;99774.41;7311021;19;128952;-38
2022/05/02 00:49:34;;;;;;;23.70;3.13;;;;;;;21.11;55.22;99776.88;7309570;19;129628;-39
2022/05/02 00:51:59;;;;;;;12.40;1.67;;;;;;;21.10;54.56;99776.09;7311105;19;130608;-37
2022/05/02 00:54:25;;;;;;;9.82;1.73;;;;;;;21.10;54.94;99772.63;7309110;19;154562;-40
2022/05/02 00:56:50;;;;;;;18.88;2.15;;;;;;;21.09;55.43;99777.03;7308660;19;154227;-40
2022/05/02 00:59:18;;;;;;;10.13;1.85;;;;;;;21.09;55.50;99768.38;7309741;19;144043;-38
2022/05/02 01:01:43;;;;;;;31.73;3.83;;;;;;;21.10;54.70;99778.69;7309624;19;129704;-40
2022/05/02 01:04:09;;;;;;;16.05;2.22;;;;;;;21.12;55.41;99773.34;7308009;19;154557;-37
2022/05/02 01:09:18;;;;;;;14.50;1.92;;;;;;;21.13;55.04;99770.59;7315770;19;129126;-38
2022/05/02 01:11:43;;;;;;;35.17;4.57;;;;;;;21.03;55.41;99759.25;7317324;19;129864;-39
2022/05/02 01:14:09;;;;;;;14.47;1.93;;;;;;;21.14;55.46;99772.22;7313331;19;154726;-41
2022/05/02 01:16:34;;;;;;;22.33;2.57;;;;;;;21.10;54.59;99768.25;7316460;19;129699;-40
2022/05/02 01:18:59;;;;;;;19.17;2.38;;;;;;;21.13;54.51;99765.34;7316495;19;129728;-38
2022/05/02 01:21:29;;;;;;;21.83;2.67;;;;;;;21.13;55.26;99767.97;7317282;19;139746;-38
2022/05/02 01:23:57;;;;;;;26.80;3.40;;;;;;;21.12;54.34;99763.69;7315908;19;129870;-38
2022/05/02 01:26:23;;;;;;;20.17;2.45;;;;;;;21.11;55.21;99764.66;7315227;19;128928;-41
2022/05/02 01:28:51;;;;;;;29.55;3.65;;;;;;;21.11;56.09;99772.50;7315396;19;129379;-37
2022/05/02 01:31:18;;;;;;;18.83;2.05;;;;;;;21.12;54.88;99774.13;7315685;19;129701;-38
2022/05/02 01:33:44;;;;;;;20.63;2.70;;;;;;;21.11;55.70;99772.50;7312184;19;130255;-39
2022/05/02 01:36:09;;;;;;;23.98;3.15;;;;;;;21.14;54.51;99767.00;7315052;19;130609;-39
2022/05/02 01:38:35;;;;;;;14.85;1.90;;;;;;;21.12;54.69;99763.69;7316015;19;129595;-40
2022/05/02 01:41:04;;;;;;;34.53;4.30;;;;;;;21.12;54.39;99757.66;7315379;19;129796;-37
2022/05/02 01:43:31;;;;;;;18.08;2.22;;;;;;;21.12;54.75;99755.84;7314535;19;128938;-39
2022/05/02 01:45:57;;;;;;;25.70;3.28;;;;;;;21.11;55.17;99762.03;7315197;19;129625;-38
2022/05/02 01:48:22;;;;;;;6.88;1.20;;;;;;;21.11;55.33;99755.97;7315810;19;129696;-37
2022/05/02 01:50:48;;;;;;;15.20;1.90;;;;;;;21.11;55.17;99762.03;7313323;19;158404;-39
2022/05/02 01:53:13;;;;;;;24.10;2.92;;;;;;;21.11;54.74;99751.59;7313310;19;128777;-38
2022/05/02 01:55:39;;;;;;;13.60;1.75;;;;;;;21.10;54.43;99755.16;7314545;19;154228;-39
2022/05/02 01:58:05;;;;;;;31.95;4.03;;;;;;;21.09;55.05;99750.06;7314654;19;129186;-39
2022/05/02 02:00:30;;;;;;;12.68;1.60;;;;;;;21.09;55.03;99761.34;7312407;19;152302;-38
2022/05/02 02:02:55;;;;;;;16.80;1.87;;;;;;;21.13;55.25;99767.13;7311538;19;154386;-38
2022/05/02 02:08:04;;;;;;;35.28;4.28;;;;;;;21.14;54.48;99755.75;7314271;19;129157;-37
2022/05/02 02:10:30;;;;;;;14.27;1.85;;;;;;;21.13;55.05;99754.91;7316160;19;129584;-39
2022/05/02 02:12:55;;;;;;;10.80;1.67;;;;;;;21.15;55.12;99767.84;7310943;19;153281;-37
2022/05/02 02:15:20;;;;;;;24.98;2.75;;;;;;;21.14;54.83;99768.81;7313152;19;154551;-41
2022/05/02 02:17:45;;;;;;;21.77;2.53;;;;;;;21.10;55.33;99755.16;7310770;19;143415;-38
2022/05/02 02:20:12;;;;;;;26.65;3.47;;;;;;;21.12;54.88;99755.84;7310546;19;148198;-39
2022/05/02 02:22:37;;;;;;;15.63;1.97;;;;;;;21.04;55.77;99745.22;7311884;19;129147;-40
2022/05/02 02:25:04;;;;;;;62.00;6.87;;;;;;;21.11;55.11;99764.66;7310584;19;131120;-40
2022/05/02 02:27:31;;;;;;;21.55;2.53;;;;;;;21.14;55.27;99767.00;7311926;19;130765;-39
2022/05/02 02:29:56;;;;;;;27.05;3.25;;;;;;;21.13;55.32;99754.91;7311720;19;129564;-35
2022/05/02 02:32:21;;;;;;;29.95;4.00;;;;;;;21.13;54.24;99751.44;7311032;19;129336;-40
2022/05/02 02:34:47;;;;;;;4.13;0.90;;;;;;;21.10;55.42;99752.56;7311140;19;154260;-38
2022/05/02 02:37:12;;;;;;;32.77;3.43;;;;;;;21.10;54.94;99744.72;7310456;19;158835;-37
2022/05/02 02:39:37;;;;;;;14.20;1.88;;;;;;;21.13;54.06;99743.59;7313020;19;130315;-40
2022/05/02 02:42:03;;;;;;;22.73;2.72;;;;;;;21.10;55.11;99747.31;7311028;19;129137;-38
2022/05/02 02:44:28;;;;;;;25.73;3.30;;;;;;;20.99;55.22;99721.28;7311335;19;129093;-40
2022/05/02 02:46:53;;;;;;;15.63;1.93;;;;;;;21.11;54.41;99733.28;7312351;19;158517;-37
2022/05/02 02:49:18;;;;;;;26.88;3.20;;;;;;;21.10;55.39;99739.50;7310442;19;158411;-39
2022/05/02 02:51:44;;;;;;;18.15;2.28;;;;;;;21.12;54.56;99732.31;7312420;19;148209;-39
2022/05/02 02:54:09;;;;;;;19.23;2.40;;;;;;;21.08;54.47;99730.94;7309521;19;154011;-40
2022/05/02 02:56:34;;;;;;;29.42;3.28;;;;;;;21.02;54.29;99741.94;7310840;19;158336;-38
2022/05/02 02:58:59;;;;;;;16.75;2.25;;;;;;;20.95;55.78;99739.94;7309736;19;158955;-39
2022/05/02 03:01:25;;;;;;;25.05;2.92;;;;;;;20.86;55.37;99745.97;7311422;19;154676;-40
2022/05/02 03:03:51;;;;;;;15.82;2.03;;;;;;;20.78;56.76;99741.38;7309004;19;130621;-38
2022/05/02 03:06:16;;;;;;;21.73;2.67;;;;;;;20.70;54.66;99741.22;7311969;19;129559;-37
2022/05/02 03:08:44;;;;;;;16.25;1.95;;;;;;;20.71;55.81;99735.84;7311402;19;129313;-41
2022/05/02 03:11:10;;;;;;;14.43;2.03;;;;;;;20.71;54.28;99738.47;7313981;19;129753;-37
2022/05/02 03:13:36;;;;;;;37.33;4.22;;;;;;;20.71;55.79;99737.63;7308439;19;130111;-39
2022/05/02 03:16:02;;;;;;;15.73;2.13;;;;;;;20.71;55.56;99727.19;7312960;19;129704;-38
2022/05/02 03:18:27;;;;;;;68.60;7.53;;;;;;;20.72;56.88;99724.44;7309865;19;130277;-38
2022/05/02 03:20:53;;;;;;;29.52;3.50;;;;;;;20.75;55.61;99723.34;7309459;19;137365;-40
2022/05/02 03:23:18;;;;;;;15.80;2.10;;;;;;;20.82;56.72;99721.88;7309138;19;153645;-39
2022/05/02 03:25:43;;;;;;;16.05;2.08;;;;;;;20.82;56.39;99721.88;7310704;19;129408;-38
2022/05/02 03:28:09;;;;;;;18.48;2.30;;;;;;;20.85;56.18;99718.16;7311917;19;134103;-39
2022/05/02 03:30:34;;;;;;;25.63;3.45;;;;;;;20.88;56.54;99713.50;7309242;19;153066;-37
2022/05/02 03:33:01;;;;;;;19.63;2.53;;;;;;;20.89;55.87;99715.16;7308934;19;154767;-40
2022/05/02 03:35:26;;;;;;;33.58;4.82;;;;;;;20.90;56.19;99721.22;7310540;19;130113;-41
2022/05/02 03:37:51;;;;;;;27.27;2.92;;;;;;;20.89;56.00;99709.13;7311268;19;130364;-38
2022/05/02 03:40:17;;;;;;;19.55;2.22;;;;;;;20.85;57.25;99708.56;7310414;19;130868;-41
2022/05/02 03:42:42;;;;;;;22.48;3.33;;;;;;;20.94;56.29;99715.56;7307938;19;153969;-39
2022/05/02 03:45:08;;;;;;;16.05;1.95;;;;;;;20.95;55.66;99719.03;7307308;19;159089;-39
2022/05/02 03:47:33;;;;;;;24.67;3.17;;;;;;;20.96;56.52;99712.84;7309341;19;129153;-44
2022/05/02 03:49:58;;;;;;;26.40;3.45;;;;;;;20.98;56.88;99713.56;7310423;19;129181;-41
2022/05/02 03:52:24;;;;;;;17.10;2.03;;;;;;;21.00;56.79;99704.66;7308368;19;154233;-39
2022/05/02 03:54:49;;;;;;;21.95;2.70;;;;;;;21.00;56.62;99717.72;7308858;19;129252;-38
2022/05/02 03:57:14;;;;;;;11.02;1.42;;;;;;;20.97;56.04;99706.66;7309557;19;159472;-38
2022/05/02 03:59:40;;;;;;;25.83;3.40;;;;;;;21.06;56.97;99711.94;7308377;19;128936;-40
2022/05/02 04:02:05;;;;;;;23.38;2.85;;;;;;;20.95;56.70;99712.03;7308018;19;129094;-37
2022/05/02 04:04:30;;;;;;;62.20;7.22;;;;;;;21.07;57.09;99721.47;7305881;19;130129;-38
2022/05/02 04:06:56;;;;;;;23.87;2.90;;;;;;;21.11;55.96;99725.44;7304443;19;158621;-39
2022/05/02 04:09:22;;;;;;;28.00;3.42;;;;;;;21.11;56.78;99724.59;7309414;19;129378;-40
2022/05/02 04:11:47;;;;;;;33.65;4.00;;;;;;;21.10;56.68;99717.75;7307682;19;130266;-39
2022/05/02 04:14:12;;;;;;;20.42;2.42;;;;;;;21.11;56.56;99724.59;7310602;19;130648;-39
2022/05/02 04:16:37;;;;;;;24.88;2.67;;;;;;;21.11;56.31;99725.44;7306438;19;159541;-38
2022/05/02 04:19:03;;;;;;;23.08;2.97;;;;;;;21.12;56.67;99732.31;7308189;19;129789;-38
2022/05/02 04:21:28;;;;;;;26.58;3.35;;;;;;;21.10;56.76;99718.56;7308379;19;129367;-39
2022/05/02 04:23:54;;;;;;;34.90;4.32;;;;;;;21.08;56.24;99715.25;7305645;19;158954;-37
2022/05/02 04:26:19;;;;;;;27.48;3.42;;;;;;;21.09;55.95;99719.50;7307589;19;129272;-39
2022/05/02 04:28:44;;;;;;;16.40;1.85;;;;;;;21.12;55.43;99729.69;7307183;19;154351;-39
2022/05/02 04:31:10;;;;;;;11.13;1.65;;;;;;;21.02;56.87;99705.34;7309324;19;129808;-39
2022/05/02 04:33:35;;;;;;;23.85;2.58;;;;;;;21.07;56.31;99733.69;7308504;19;130295;-38
2022/05/02 04:36:00;;;;;;;33.97;4.03;;;;;;;21.11;56.28;99735.06;7305649;19;158632;-38
2022/05/02 04:38:28;;;;;;;35.63;4.43;;;;;;;21.10;56.66;99734.25;7305814;19;154567;-37
2022/05/02 04:40:55;;;;;;;36.30;4.32;;;;;;;21.09;56.23;99737.81;7306303;19;129571;-39
2022/05/02 04:43:20;;;;;;;19.83;2.55;;;;;;;21.08;56.93;99737.94;7307125;19;129112;-40
2022/05/02 04:45:45;;;;;;;18.23;2.30;;;;;;;21.07;56.13;99734.53;7302265;19;159018;-40
2022/05/02 04:48:11;;;;;;;20.07;2.70;;;;;;;21.11;57.05;99735.06;7306662;19;155188;-37
2022/05/02 04:50:36;;;;;;;18.35;2.22;;;;;;;21.08;56.15;99740.56;7308645;19;129505;-37
2022/05/02 04:53:01;;;;;;;35.70;4.47;;;;;;;21.09;56.48;99735.19;7304953;19;136559;-38
2022/05/02 04:55:26;;;;;;;30.07;3.87;;;;;;;21.03;56.74;99742.75;7308288;19;158867;-38
2022/05/02 04:57:52;;;;;;;25.10;3.03;;;;;;;20.98;56.38;99730.09;7305728;19;154278;-37
2022/05/02 05:00:17;;;;;;;33.53;3.75;;;;;;;21.04;56.80;99753.06;7306180;19;128964;-38
2022/05/02 05:02:42;;;;;;;17.25;2.15;;;;;;;21.06;55.57;99743.31;7307042;19;129305;-37
2022/05/02 05:05:08;;;;;;;35.78;4.25;;;;;;;21.08;56.48;99751.84;7304943;19;134190;-39
2022/05/02 05:07:36;;;;;;;22.73;2.90;;;;;;;21.10;56.63;99744.72;7307582;19;129086;-38
2022/05/02 05:10:01;;;;;;;26.63;3.53;;;;;;;21.08;56.20;99746.63;7305600;19;129180;-39
2022/05/02 05:12:45;;;;;;;26.00;3.28;;;;;;;21.11;57.26;99741.13;7305193;19;132505;-39
2022/05/02 05:18:34;;;;;;;45.75;5.38;;;;;;;21.09;56.94;99742.25;7307100;19;130914;-38
2022/05/02 05:21:04;;;;;;;22.10;2.70;;;;;;;21.09;57.03;99743.03;7307594;19;129172;-40
2022/05/02 05:23:51;;;;;;;19.70;2.70;;;;;;;21.10;56.89;99746.50;7301906;19;130932;-41
2022/05/02 05:26:25;;;;;;;24.65;2.97;;;;;;;21.11;57.46;99748.97;7306385;19;130243;-36
2022/05/02 05:29:04;;;;;;;23.02;2.95;;;;;;;21.13;57.51;99751.44;7306681;19;129008;-38
2022/05/02 05:31:33;;;;;;;33.85;4.00;;;;;;;21.05;56.60;99752.13;7306207;19;129473;-38
2022/05/02 05:34:07;;;;;;;24.17;2.78;;;;;;;21.11;57.29;99745.53;7304058;19;129278;-39
2022/05/02 05:37:14;;;;;;;24.77;3.00;;;;;;;21.13;57.44;99747.06;7306287;19;129660;-40
2022/05/02 05:39:51;;;;;;;13.90;1.73;;;;;;;21.07;56.60;99750.22;7304132;19;129793;-39
2022/05/02 05:42:35;;;;;;;33.22;3.67;;;;;;;21.14;56.35;99743.47;7305372;19;129207;-39
2022/05/02 05:45:31;;;;;;;14.13;2.47;;;;;;;21.19;56.26;99743.91;7305046;19;130121;-38
2022/05/02 05:48:06;;;;;;;56.38;7.18;;;;;;;21.13;55.53;99738.38;7297245;19;130410;-38
2022/05/02 05:50:36;;;;;;;77.70;9.23;;;;;;;21.10;56.37;99744.72;7291350;19;129433;-38
2022/05/02 05:53:07;;;;;;;103.00;12.98;;;;;;;21.08;57.02;99736.16;7293863;19;131093;-38
2022/05/02 05:55:51;;;;;;;67.75;7.45;;;;;;;21.17;57.18;99745.00;7306697;19;130665;-38
2022/05/02 05:58:28;;;;;;;23.98;3.33;;;;;;;21.08;56.61;99730.09;7312562;19;150302;-38
2022/05/02 06:01:09;;;;;;;21.02;2.83;;;;;;;20.98;57.23;99724.03;7313122;19;131714;-37
2022/05/02 06:03:42;;;;;;;29.05;3.33;;;;;;;21.07;56.48;99739.75;7305818;19;129137;-37
2022/05/02 06:06:07;;;;;;;24.98;2.67;;;;;;;21.05;56.20;99736.44;7310205;19;129380;-38
2022/05/02 06:08:34;;;;;;;37.90;4.32;;;;;;;21.02;56.21;99731.47;7309040;19;158682;-39
2022/05/02 06:11:00;;;;;;;24.33;3.17;;;;;;;21.05;56.15;99731.22;7310979;19;129124;-38
2022/05/02 06:13:29;;;;;;;42.00;4.60;;;;;;;21.04;56.41;99732.16;7309629;19;129123;-38
2022/05/02 06:18:42;;;;;;;32.63;4.10;;;;;;;21.02;56.69;99731.47;7310527;19;129082;-39
2022/05/02 06:21:07;;;;;;;34.90;3.80;;;;;;;21.03;56.84;99740.13;7312416;19;130345;-40
2022/05/02 06:23:39;;;;;;;21.75;2.55;;;;;;;21.02;57.05;99736.72;7310763;19;129109;-38
2022/05/02 06:26:06;;;;;;;25.85;3.22;;;;;;;21.00;56.47;99746.47;7305994;19;129347;-39
2022/05/02 06:28:39;;;;;;;30.63;3.70;;;;;;;21.01;57.19;99750.72;7309815;19;131085;-38
2022/05/02 06:31:12;;;;;;;28.25;3.42;;;;;;;21.04;56.81;99744.41;7311727;19;129068;-39
2022/05/02 06:33:41;;;;;;;70.72;8.05;;;;;;;21.05;56.83;99740.84;7303991;19;130434;-35
2022/05/02 06:36:35;;;;;;;30.60;4.10;;;;;;;21.08;56.63;99741.41;7309340;19;131233;-40
2022/05/02 06:39:05;;;;;;;31.73;4.18;;;;;;;21.06;56.76;99743.31;7308490;19;130356;-37
2022/05/02 06:42:13;;;;;;;52.97;6.68;;;;;;;21.04;56.83;99745.22;7309931;19;129182;-38
2022/05/02 06:45:06;;;;;;;27.25;3.25;;;;;;;21.11;56.69;99741.13;7309859;19;130332;-38
2022/05/02 06:47:49;;;;;;;18.48;2.40;;;;;;;21.11;56.22;99743.75;7311138;19;129947;-39
2022/05/02 06:50:21;;;;;;;29.50;3.22;;;;;;;21.08;56.05;99745.78;7309090;19;130480;-41
2022/05/02 06:53:13;;;;;;;21.50;2.67;;;;;;;21.11;56.26;99741.13;7309391;19;129170;-35
2022/05/02 06:56:01;;;;;;;21.55;2.88;;;;;;;21.14;56.45;99733.00;7304794;19;130377;-41
2022/05/02 06:58:35;;;;;;;;;;;;;;;21.24;55.83;99736.47;7309493;19;129735;-40
2022/05/02 07:01:03;;;;;;;32.85;4.18;;;;;;;21.16;56.43;99733.72;7308266;19;130653;-38
2022/05/02 07:03:35;;;;;;;21.60;2.67;;;;;;;21.06;55.76;99719.78;7305212;19;154504;-41
2022/05/02 07:06:00;;;;;;;40.70;5.20;;;;;;;21.17;55.38;99734.56;7304141;19;130123;-40
2022/05/02 07:08:28;;;;;;;24.40;3.25;;;;;;;21.17;56.24;99724.09;7309741;19;142673;-38
2022/05/02 07:11:06;;;;;;;25.58;3.30;;;;;;;21.18;56.11;99730.97;7305021;19;130392;-38
2022/05/02 07:13:48;;;;;;;36.92;4.45;;;;;;;21.18;56.03;99729.19;7306119;19;130413;-37
2022/05/02 07:16:24;;;;;;;33.50;4.13;;;;;;;21.23;56.64;99734.84;7308923;19;131303;-37
2022/05/02 07:19:13;;;;;;;22.15;2.58;;;;;;;21.22;56.89;99727.94;7309474;19;130018;-37
2022/05/02 07:21:57;;;;;;;21.10;2.72;;;;;;;21.20;56.26;99722.03;7306166;19;131081;-41
2022/05/02 07:24:46;;;;;;;42.17;4.95;;;;;;;21.25;56.24;99721.63;7302042;19;129968;-38
2022/05/02 07:27:15;;;;;;;33.63;4.45;;;;;;;21.21;56.10;99725.47;7302889;19;131816;-38
2022/05/02 07:29:44;;;;;;;40.38;5.03;;;;;;;21.20;55.26;99724.66;7303252;19;129889;-39
2022/05/02 07:32:11;;;;;;;29.17;3.53;;;;;;;21.21;55.87;99715.84;7306208;19;129629;-39
2022/05/02 07:34:38;;;;;;;12.63;2.05;;;;;;;21.20;55.26;99724.66;7305027;19;129264;-40
2022/05/02 07:37:05;;;;;;;37.75;4.97;;;;;;;21.18;55.87;99716.13;7307350;19;129830;-39
2022/05/02 07:39:31;;;;;;;33.33;3.85;;;;;;;21.18;55.56;99716.13;7308964;19;130503;-40
2022/05/02 07:42:00;;;;;;;38.13;4.72;;;;;;;21.22;56.12;99721.91;7299108;19;130902;-39
2022/05/02 07:44:30;;;;;;;38.30;4.47;;;;;;;21.17;54.86;99709.22;7306654;19;129261;-39
2022/05/02 07:46:58;;;;;;;13.48;2.30;;;;;;;21.17;55.37;99718.88;7306118;19;130520;-36
2022/05/02 07:49:27;;;;;;;31.13;3.95;;;;;;;21.15;55.17;99728.63;7308389;19;129541;-40
2022/05/02 07:51:53;;;;;;;23.60;3.35;;;;;;;21.15;55.46;99716.38;7308111;19;130488;-40
2022/05/02 07:54:24;;;;;;;34.45;4.70;;;;;;;21.17;56.02;99719.66;7309196;19;130157;-39
2022/05/02 07:56:56;;;;;;;22.65;2.65;;;;;;;21.14;55.34;99719.94;7309672;19;130668;-39
2022/05/02 07:59:25;;;;;;;21.33;3.33;;;;;;;21.16;55.55;99717.19;7307665;19;132585;-39
2022/05/02 08:01:50;;;;;;;24.40;2.78;;;;;;;21.17;55.20;99724.91;7310057;19;130420;-41
2022/05/02 08:04:17;;;;;;;12.63;2.28;;;;;;;21.17;55.06;99714.44;7308573;19;129694;-36
2022/05/02 08:06:48;;;;;;;;;;;;;;;21.25;56.35;99709.41;7308377;19;129252;-39
2022/05/02 08:09:43;;;;;;;18.45;2.63;;;;;;;21.15;56.27;99710.31;7310062;19;129406;-40
2022/05/02 08:12:39;;;;;;;19.27;2.67;;;;;;;21.18;56.15;99718.72;7307475;19;129620;-38
2022/05/02 08:15:11;;;;;;;24.17;3.15;;;;;;;21.15;55.83;99716.38;7306841;19;129212;-41
2022/05/02 08:17:55;;;;;;;29.45;3.70;;;;;;;21.19;56.39;99712.53;7308662;19;130085;-39
2022/05/02 08:20:29;;;;;;;32.88;4.13;;;;;;;21.16;56.48;99710.19;7308467;19;129129;-40
2022/05/02 08:29:17;;;;;;;21.95;3.17;;;;;;;21.17;56.31;99709.22;7308182;19;128997;-40
2022/05/02 08:32:04;;;;;;;23.63;2.97;;;;;;;21.17;56.22;99703.97;7309815;19;130098;-38
2022/05/02 08:34:33;;;;;;;23.42;3.08;;;;;;;21.15;55.32;99716.38;7306952;19;130262;-39
2022/05/02 08:37:18;;;;;;;39.15;5.05;;;;;;;21.16;55.97;99704.13;7305939;19;154801;-40
2022/05/02 08:40:06;;;;;;;32.70;4.40;;;;;;;21.15;55.52;99707.72;7307323;19;130866;-38
2022/05/02 08:42:52;;;;;;;;;;;;;;;21.24;55.93;99705.09;7308372;19;129020;-38
2022/05/02 08:45:36;;;;;;;19.70;3.13;;;;;;;21.18;55.45;99699.59;7305819;19;129652;-40
2022/05/02 08:48:43;;;;;;;33.95;4.72;;;;;;;21.20;56.29;99695.91;7305465;19;129856;-40
2022/05/02 08:51:43;;;;;;;27.60;3.75;;;;;;;21.20;55.85;99695.91;7307883;19;128772;-40
2022/05/02 08:54:39;;;;;;;27.60;3.60;;;;;;;21.17;55.15;99693.53;7304439;19;129857;-36
2022/05/02 08:57:26;;;;;;;25.38;3.30;;;;;;;21.19;56.02;99680.34;7307432;19;129799;-40
2022/05/02 09:00:17;;;;;;;26.73;3.25;;;;;;;21.19;56.36;99686.38;7308370;19;129309;-39
2022/05/02 09:03:17;;;;;;;27.92;4.25;;;;;;;21.20;55.67;99692.44;7304984;19;129873;-39
2022/05/02 09:06:08;;;;;;;20.90;2.65;;;;;;;21.09;56.22;99680.31;7303277;19;131508;-39
2022/05/02 09:09:26;;;;;;;23.75;3.40;;;;;;;21.19;55.85;99675.91;7305937;19;130498;-37
2022/05/02 09:12:19;;;;;;;16.17;2.28;;;;;;;21.18;55.69;99673.44;7304424;19;129967;-41
2022/05/02 09:15:12;;;;;;;21.83;2.70;;;;;;;21.18;56.23;99682.13;7305473;19;130255;-40
2022/05/02 09:18:21;;;;;;;26.02;3.65;;;;;;;21.21;55.88;99678.41;7304738;19;131060;-39
2022/05/02 09:20:58;;;;;;;25.83;3.58;;;;;;;21.16;55.89;99676.19;7306629;19;129384;-39
2022/05/02 09:23:29;;;;;;;23.77;3.40;;;;;;;21.13;55.75;99673.84;7305162;19;129036;-40
2022/05/02 09:26:33;;;;;;;36.53;4.97;;;;;;;21.19;56.03;99675.91;7303762;19;153967;-38
2022/05/02 09:29:24;;;;;;;37.97;4.97;;;;;;;21.16;56.13;99670.97;7311216;19;130725;-40
2022/05/02 09:31:58;;;;;;;33.33;4.70;;;;;;;21.14;55.86;99667.66;7311140;19;131670;-41
2022/05/02 09:34:36;;;;;;;38.25;5.05;;;;;;;21.15;55.76;99661.47;7311371;19;130904;-39
2022/05/02 09:37:06;;;;;;;30.52;3.90;;;;;;;21.11;56.12;99661.88;7311977;19;130438;-39
2022/05/02 09:39:40;;;;;;;23.02;3.05;;;;;;;21.15;56.01;99664.09;7311138;19;130074;-39
2022/05/02 09:42:42;;;;;;;30.50;4.47;;;;;;;21.16;55.72;99664.91;7309504;19;157874;-39
2022/05/02 09:52:03;;;;;;;15.52;2.05;;;;;;;21.15;56.10;99648.41;7314371;19;131064;-38
2022/05/02 09:58:00;;;;;;;23.30;2.80;;;;;;;21.17;56.25;99649.09;7311632;19;129505;-39
2022/05/02 10:01:06;;;;;;;38.10;5.13;;;;;;;21.16;55.83;99642.22;7310803;19;128922;-37
2022/05/02 10:03:58;;;;;;;25.75;3.63;;;;;;;21.14;56.13;99640.72;7304344;19;129541;-39
2022/05/02 10:06:51;;;;;;;24.42;3.85;;;;;;;21.15;56.48;99640.56;7308460;19;129864;-39
2022/05/02 10:09:43;;;;;;;36.20;4.90;;;;;;;21.12;55.78;99627.75;7309720;19;129876;-37
2022/05/02 10:12:26;;;;;;;17.48;2.50;;;;;;;21.15;56.35;99632.72;7311634;19;129166;-40
2022/05/02 10:15:10;;;;;;;56.08;6.53;;;;;;;21.14;56.55;99631.06;7309130;19;131863;-38
2022/05/02 10:18:10;;;;;;;35.70;4.97;;;;;;;21.10;55.98;99632.31;7308331;19;130184;-40
2022/05/02 10:20:50;;;;;;;36.70;4.68;;;;;;;21.12;56.46;99632.97;7301661;19;129449;-40
2022/05/02 10:23:43;;;;;;;25.50;3.20;;;;;;;21.16;56.48;99631.75;7309527;19;129365;-40
2022/05/02 10:26:14;;;;;;;24.95;3.38;;;;;;;21.11;56.24;99620.88;7309637;19;129198;-40
2022/05/02 10:29:02;;;;;;;21.30;2.90;;;;;;;21.11;56.57;99620.03;7312778;19;129759;-40
2022/05/02 10:31:32;;;;;;;27.15;3.40;;;;;;;21.08;56.30;99615.09;7310743;19;128971;-37
2022/05/02 10:34:02;;;;;;;30.98;4.20;;;;;;;21.09;55.79;99622.00;7304182;19;130503;-38
2022/05/02 10:36:41;;;;;;;27.23;3.45;;;;;;;21.13;55.75;99621.56;7308241;19;129326;-41
2022/05/02 10:39:25;;;;;;;37.00;5.03;;;;;;;21.13;56.23;99623.34;7308178;19;133448;-38
2022/05/02 10:41:58;;;;;;;44.83;5.40;;;;;;;21.14;56.28;99607.53;7309592;19;129355;-38
2022/05/02 10:44:28;;;;;;;20.17;2.80;;;;;;;21.10;55.67;99608.78;7310688;19;129643;-40
2022/05/02 10:47:02;;;;;;;35.92;4.72;;;;;;;21.10;56.28;99611.41;7307094;19;131670;-41
2022/05/02 10:50:06;;;;;;;23.48;3.22;;;;;;;21.11;56.40;99599.97;7308710;19;130680;-38
2022/05/02 10:52:53;;;;;;;43.80;5.85;;;;;;;21.09;56.63;99601.88;7307584;19;129833;-38
2022/05/02 10:55:21;;;;;;;33.67;4.93;;;;;;;21.07;54.90;99593.38;7307430;19;130474;-35
2022/05/02 10:57:55;;;;;;;26.02;3.63;;;;;;;21.06;55.92;99596.09;7307663;19;129389;-39
2022/05/02 11:00:21;;;;;;;18.90;2.63;;;;;;;21.05;56.44;99595.28;7310376;19;130487;-39
2022/05/02 11:02:53;;;;;;;18.23;2.37;;;;;;;21.07;56.67;99590.75;7307181;19;130402;-38
2022/05/02 11:05:31;;;;;;;33.55;4.45;;;;;;;21.05;56.16;99578.78;7306867;19;130998;-36
2022/05/02 11:08:07;;;;;;;14.85;2.30;;;;;;;21.04;56.77;99577.13;7307911;19;129721;-40
2022/05/02 11:11:12;;;;;;;34.63;4.88;;;;;;;21.10;56.76;99587.88;7307839;19;131280;-41
2022/05/02 11:13:44;;;;;;;13.73;2.05;;;;;;;21.04;56.76;99583.16;7301053;19;129783;-38
2022/05/02 11:16:26;;;;;;;19.08;2.65;;;;;;;21.05;56.03;99579.59;7306546;19;129276;-39
2022/05/02 11:22:14;;;;;;;41.38;5.95;;;;;;;21.05;56.45;99573.53;7307556;19;129915;-39
2022/05/02 11:25:08;;;;;;;33.95;4.47;;;;;;;21.05;56.86;99573.53;7305491;19;129751;-40
2022/05/02 11:27:38;;;;;;;24.88;3.25;;;;;;;21.04;56.42;99566.69;7308209;19;130336;-39
2022/05/02 11:30:12;;;;;;;39.63;5.38;;;;;;;21.01;56.79;99567.75;7310804;19;129456;-38
2022/05/02 11:32:53;;;;;;;24.13;3.28;;;;;;;21.02;57.00;99558.13;7307976;19;129716;-41
2022/05/02 11:35:24;;;;;;;23.58;3.38;;;;;;;21.06;56.67;99559.50;7307947;19;129599;-40
2022/05/02 11:38:19;;;;;;;21.92;3.33;;;;;;;21.03;57.30;99560.63;7307641;19;129658;-38
2022/05/02 11:40:57;;;;;;;22.08;3.13;;;;;;;21.04;57.34;99557.03;7309942;19;129479;-38
2022/05/02 11:43:23;;;;;;;33.53;4.57;;;;;;;21.05;56.69;99557.88;7306132;19;129652;-38
2022/05/02 11:46:22;;;;;;;20.97;2.83;;;;;;;21.07;57.17;99551.56;7306420;19;131489;-38
2022/05/02 11:49:23;;;;;;;21.15;3.15;;;;;;;21.05;56.83;99558.69;7306169;19;130006;-40
2022/05/02 11:51:53;;;;;;;36.63;5.25;;;;;;;21.04;55.96;99554.41;7306181;19;129265;-40
2022/05/02 11:54:27;;;;;;;20.08;3.00;;;;;;;21.05;57.18;99545.63;7306155;19;129563;-39
2022/05/02 11:57:08;;;;;;;32.30;4.78;;;;;;;21.05;57.02;99547.41;7304213;19;155043;-39
2022/05/02 11:59:44;;;;;;;30.58;4.53;;;;;;;21.07;57.29;99546.31;7307917;19;129232;-40
2022/05/02 12:02:30;;;;;;;41.92;5.82;;;;;;;21.07;56.91;99538.47;7302686;19;131825;-40
2022/05/02 12:04:57;;;;;;;37.83;5.13;;;;;;;21.05;56.58;99532.56;7306529;19;129803;-38
2022/05/02 12:07:29;;;;;;;28.30;3.85;;;;;;;21.06;57.01;99534.19;7306754;19;129575;-37
2022/05/02 12:10:14;;;;;;;43.58;5.50;;;;;;;21.09;57.52;99518.22;7306128;19;129742;-38
2022/05/02 12:12:48;;;;;;;22.88;2.97;;;;;;;20.95;56.85;99508.16;7306881;19;129472;-39
2022/05/02 12:15:14;;;;;;;31.73;4.80;;;;;;;21.02;56.36;99522.38;7306039;19;131244;-39
2022/05/02 12:17:53;;;;;;;36.10;5.15;;;;;;;21.05;57.15;99527.34;7305305;19;129421;-39